sensor_id;sensor_type;location;lat;lon;timestamp;pressure;altitude;pressure_sealevel;temperature;humidity
70011;BME280;59543;37.950;-122.338;2023-01-28T00:00:04;101703.38;;;12.20;70.70
70011;BME280;59543;37.950;-122.338;2023-01-28T00:02:31;101702.38;;;12.21;70.69
70011;BME280;59543;37.950;-122.338;2023-01-28T00:04:57;101701.41;;;12.22;70.49
70011;BME280;59543;37.950;-122.338;2023-01-28T00:07:23;101697.53;;;12.15;70.60
70011;BME280;59543;37.950;-122.338;2023-01-28T00:09:49;101690.41;;;12.04;70.90
70011;BME280;59543;37.950;-122.338;2023-01-28T00:12:15;101688.78;;;12.23;70.20
70011;BME280;59543;37.950;-122.338;2023-01-28T00:14:41;101686.38;;;11.89;70.96
70011;BME280;59543;37.950;-122.338;2023-01-28T00:17:06;101675.31;;;11.92;70.78
70011;BME280;59543;37.950;-122.338;2023-01-28T00:19:32;101673.19;;;11.75;72.01
70011;BME280;59543;37.950;-122.338;2023-01-28T00:21:58;101667.41;;;11.79;72.66
70011;BME280;59543;37.950;-122.338;2023-01-28T00:24:24;101650.47;;;11.67;73.62
70011;BME280;59543;37.950;-122.338;2023-01-28T00:26:50;101648.31;;;11.61;73.72
70011;BME280;59543;37.950;-122.338;2023-01-28T00:29:16;101649.28;;;11.60;74.04
70011;BME280;59543;37.950;-122.338;2023-01-28T00:31:42;101646.47;;;11.62;74.55
70011;BME280;59543;37.950;-122.338;2023-01-28T00:34:07;101647.06;;;11.44;75.88
70011;BME280;59543;37.950;-122.338;2023-01-28T00:36:33;101643.22;;;11.37;76.68
70011;BME280;59543;37.950;-122.338;2023-01-28T00:39:04;101636.09;;;11.36;77.07
70011;BME280;59543;37.950;-122.338;2023-01-28T00:41:30;101646.50;;;11.20;77.50
70011;BME280;59543;37.950;-122.338;2023-01-28T00:43:56;101647.13;;;11.12;77.53
70011;BME280;59543;37.950;-122.338;2023-01-28T00:46:23;101647.06;;;11.24;77.01
70011;BME280;59543;37.950;-122.338;2023-01-28T00:48:50;101636.69;;;11.19;77.47
70011;BME280;59543;37.950;-122.338;2023-01-28T00:51:17;101629.66;;;11.07;78.18
70011;BME280;59543;37.950;-122.338;2023-01-28T00:53:44;101645.38;;;11.02;78.17
70011;BME280;59543;37.950;-122.338;2023-01-28T00:56:11;101640.16;;;11.10;77.77
70011;BME280;59543;37.950;-122.338;2023-01-28T00:58:39;101620.88;;;11.05;77.79
70011;BME280;59543;37.950;-122.338;2023-01-28T01:01:06;101622.47;;;11.07;77.55
70011;BME280;59543;37.950;-122.338;2023-01-28T01:03:32;101608.72;;;10.89;78.13
70011;BME280;59543;37.950;-122.338;2023-01-28T01:05:58;101614.66;;;10.72;79.15
70011;BME280;59543;37.950;-122.338;2023-01-28T01:08:24;101607.78;;;10.79;79.18
70011;BME280;59543;37.950;-122.338;2023-01-28T01:10:59;101605.84;;;10.70;79.06
70011;BME280;59543;37.950;-122.338;2023-01-28T01:13:25;101621.34;;;10.57;80.16
70011;BME280;59543;37.950;-122.338;2023-01-28T01:16:00;101612.00;;;10.61;79.78
70011;BME280;59543;37.950;-122.338;2023-01-28T01:18:25;101609.25;;;10.51;79.80
70011;BME280;59543;37.950;-122.338;2023-01-28T01:20:51;101606.50;;;10.30;80.58
70011;BME280;59543;37.950;-122.338;2023-01-28T01:23:26;101606.66;;;10.49;80.55
70011;BME280;59543;37.950;-122.338;2023-01-28T01:25:52;101594.19;;;10.48;80.24
70011;BME280;59543;37.950;-122.338;2023-01-28T01:28:18;101604.63;;;10.19;81.87
70011;BME280;59543;37.950;-122.338;2023-01-28T01:30:45;101595.72;;;10.07;82.13
70011;BME280;59543;37.950;-122.338;2023-01-28T01:33:11;101598.41;;;10.19;82.13
70011;BME280;59543;37.950;-122.338;2023-01-28T01:35:37;101591.59;;;10.15;82.15
70011;BME280;59543;37.950;-122.338;2023-01-28T01:38:02;101586.72;;;9.97;82.97
70011;BME280;59543;37.950;-122.338;2023-01-28T01:40:28;101594.69;;;9.88;83.41
70011;BME280;59543;37.950;-122.338;2023-01-28T01:42:54;101592.22;;;9.96;82.76
70011;BME280;59543;37.950;-122.338;2023-01-28T01:45:20;101593.59;;;9.79;83.56
70011;BME280;59543;37.950;-122.338;2023-01-28T01:47:46;101583.44;;;9.71;83.66
70011;BME280;59543;37.950;-122.338;2023-01-28T01:50:30;101588.09;;;9.69;84.09
70011;BME280;59543;37.950;-122.338;2023-01-28T01:53:05;101593.06;;;9.62;84.20
70011;BME280;59543;37.950;-122.338;2023-01-28T01:55:32;101582.34;;;9.62;84.20
70011;BME280;59543;37.950;-122.338;2023-01-28T01:58:00;101576.50;;;9.69;83.62
70011;BME280;59543;37.950;-122.338;2023-01-28T02:00:27;101565.00;;;9.55;83.78
70011;BME280;59543;37.950;-122.338;2023-01-28T02:02:53;101564.41;;;9.52;84.25
70011;BME280;59543;37.950;-122.338;2023-01-28T02:05:20;101556.84;;;9.46;84.94
70011;BME280;59543;37.950;-122.338;2023-01-28T02:07:47;101576.00;;;9.52;84.82
70011;BME280;59543;37.950;-122.338;2023-01-28T02:10:13;101572.69;;;9.37;84.86
70011;BME280;59543;37.950;-122.338;2023-01-28T02:12:43;101570.13;;;9.47;84.41
70011;BME280;59543;37.950;-122.338;2023-01-28T02:15:13;101579.78;;;9.50;84.68
70011;BME280;59543;37.950;-122.338;2023-01-28T02:17:41;101563.19;;;9.45;84.91
70011;BME280;59543;37.950;-122.338;2023-01-28T02:20:13;101567.81;;;9.31;85.56
70011;BME280;59543;37.950;-122.338;2023-01-28T02:22:50;101559.75;;;9.31;85.52
70011;BME280;59543;37.950;-122.338;2023-01-28T02:30:34;101561.31;;;9.11;87.60
70011;BME280;59543;37.950;-122.338;2023-01-28T02:33:04;101569.25;;;9.13;88.13
70011;BME280;59543;37.950;-122.338;2023-01-28T02:35:38;101549.84;;;9.09;87.50
70011;BME280;59543;37.950;-122.338;2023-01-28T02:38:28;101548.03;;;9.21;87.31
70011;BME280;59543;37.950;-122.338;2023-01-28T02:41:17;101549.00;;;9.20;86.89
70011;BME280;59543;37.950;-122.338;2023-01-28T02:43:45;101549.47;;;9.14;87.59
70011;BME280;59543;37.950;-122.338;2023-01-28T02:48:56;101552.41;;;9.22;87.70
70011;BME280;59543;37.950;-122.338;2023-01-28T02:53:52;101555.38;;;9.30;87.03
70011;BME280;59543;37.950;-122.338;2023-01-28T02:56:24;101546.56;;;9.28;86.87
70011;BME280;59543;37.950;-122.338;2023-01-28T03:01:27;101558.28;;;9.27;87.24
70011;BME280;59543;37.950;-122.338;2023-01-28T03:06:24;101564.34;;;9.07;88.47
70011;BME280;59543;37.950;-122.338;2023-01-28T03:09:02;101551.56;;;9.22;88.26
70011;BME280;59543;37.950;-122.338;2023-01-28T03:14:36;101572.09;;;9.34;88.60
70011;BME280;59543;37.950;-122.338;2023-01-28T03:17:31;101568.03;;;9.28;88.57
70011;BME280;59543;37.950;-122.338;2023-01-28T03:20:16;101576.31;;;9.14;90.21
70011;BME280;59543;37.950;-122.338;2023-01-28T03:23:02;101574.88;;;9.21;90.65
70011;BME280;59543;37.950;-122.338;2023-01-28T03:25:48;101565.81;;;9.11;90.98
70011;BME280;59543;37.950;-122.338;2023-01-28T03:28:36;101564.22;;;9.08;90.04
70011;BME280;59543;37.950;-122.338;2023-01-28T03:31:22;101570.31;;;8.99;89.87
70011;BME280;59543;37.950;-122.338;2023-01-28T03:34:07;101575.06;;;8.96;90.23
70011;BME280;59543;37.950;-122.338;2023-01-28T03:36:51;101572.03;;;9.00;89.33
70011;BME280;59543;37.950;-122.338;2023-01-28T03:39:20;101574.59;;;8.90;90.32
70011;BME280;59543;37.950;-122.338;2023-01-28T03:44:22;101574.34;;;8.93;89.58
70011;BME280;59543;37.950;-122.338;2023-01-28T03:47:08;101583.34;;;8.92;89.23
70011;BME280;59543;37.950;-122.338;2023-01-28T03:49:39;101582.41;;;8.93;88.76
70011;BME280;59543;37.950;-122.338;2023-01-28T03:52:05;101587.06;;;9.03;88.27
70011;BME280;59543;37.950;-122.338;2023-01-28T03:54:31;101581.91;;;9.00;88.18
70011;BME280;59543;37.950;-122.338;2023-01-28T03:56:56;101569.66;;;8.84;88.13
70011;BME280;59543;37.950;-122.338;2023-01-28T03:59:22;101574.09;;;8.97;87.29
70011;BME280;59543;37.950;-122.338;2023-01-28T04:01:48;101578.97;;;8.91;87.25
70011;BME280;59543;37.950;-122.338;2023-01-28T04:04:15;101575.91;;;8.85;86.93
70011;BME280;59543;37.950;-122.338;2023-01-28T04:06:52;101571.00;;;8.90;86.77
70011;BME280;59543;37.950;-122.338;2023-01-28T04:09:19;101571.00;;;8.79;86.86
70011;BME280;59543;37.950;-122.338;2023-01-28T04:11:45;101573.50;;;8.69;87.03
70011;BME280;59543;37.950;-122.338;2023-01-28T04:14:11;101576.88;;;8.60;87.19
70011;BME280;59543;37.950;-122.338;2023-01-28T04:16:37;101580.38;;;8.84;86.56
70011;BME280;59543;37.950;-122.338;2023-01-28T04:19:03;101578.22;;;8.54;87.58
70011;BME280;59543;37.950;-122.338;2023-01-28T04:21:29;101577.34;;;8.54;87.63
70011;BME280;59543;37.950;-122.338;2023-01-28T04:23:55;101574.38;;;8.69;86.91
70011;BME280;59543;37.950;-122.338;2023-01-28T04:26:21;101564.63;;;8.68;86.80
70011;BME280;59543;37.950;-122.338;2023-01-28T04:28:46;101555.94;;;8.65;86.42
70011;BME280;59543;37.950;-122.338;2023-01-28T04:31:12;101569.78;;;8.47;87.00
70011;BME280;59543;37.950;-122.338;2023-01-28T04:33:38;101577.72;;;8.49;86.97
70011;BME280;59543;37.950;-122.338;2023-01-28T04:36:04;101573.53;;;8.45;86.77
70011;BME280;59543;37.950;-122.338;2023-01-28T04:38:30;101572.91;;;8.41;86.87
70011;BME280;59543;37.950;-122.338;2023-01-28T04:40:56;101569.75;;;8.23;86.60
70011;BME280;59543;37.950;-122.338;2023-01-28T04:43:21;101577.84;;;8.11;87.52
70011;BME280;59543;37.950;-122.338;2023-01-28T04:45:47;101582.22;;;8.12;86.93
70011;BME280;59543;37.950;-122.338;2023-01-28T04:48:13;101576.13;;;8.10;86.59
70011;BME280;59543;37.950;-122.338;2023-01-28T04:50:40;101577.00;;;8.10;86.65
70011;BME280;59543;37.950;-122.338;2023-01-28T04:53:06;101586.09;;;8.08;86.30
70011;BME280;59543;37.950;-122.338;2023-01-28T04:55:32;101584.78;;;7.89;87.19
70011;BME280;59543;37.950;-122.338;2023-01-28T04:57:58;101588.03;;;7.69;88.25
70011;BME280;59543;37.950;-122.338;2023-01-28T05:00:24;101587.16;;;7.68;88.33
70011;BME280;59543;37.950;-122.338;2023-01-28T05:02:50;101575.81;;;7.65;88.54
70011;BME280;59543;37.950;-122.338;2023-01-28T05:05:15;101573.56;;;7.71;87.72
70011;BME280;59543;37.950;-122.338;2023-01-28T05:07:41;101581.47;;;7.73;87.30
70011;BME280;59543;37.950;-122.338;2023-01-28T05:10:07;101571.41;;;7.64;87.34
70011;BME280;59543;37.950;-122.338;2023-01-28T05:12:33;101573.03;;;7.66;86.92
70011;BME280;59543;37.950;-122.338;2023-01-28T05:14:59;101573.59;;;7.59;86.66
70011;BME280;59543;37.950;-122.338;2023-01-28T05:17:26;101572.84;;;7.44;87.73
70011;BME280;59543;37.950;-122.338;2023-01-28T05:19:52;101568.97;;;7.48;87.21
70011;BME280;59543;37.950;-122.338;2023-01-28T05:22:18;101569.53;;;7.40;87.04
70011;BME280;59543;37.950;-122.338;2023-01-28T05:24:44;101584.28;;;7.33;87.33
70011;BME280;59543;37.950;-122.338;2023-01-28T05:27:10;101585.56;;;7.27;88.06
70011;BME280;59543;37.950;-122.338;2023-01-28T05:29:36;101580.56;;;7.36;87.30
70011;BME280;59543;37.950;-122.338;2023-01-28T05:32:02;101584.94;;;7.37;87.17
70011;BME280;59543;37.950;-122.338;2023-01-28T05:34:27;101586.66;;;7.38;87.16
70011;BME280;59543;37.950;-122.338;2023-01-28T05:36:53;101583.00;;;7.39;87.04
70011;BME280;59543;37.950;-122.338;2023-01-28T05:39:19;101583.88;;;7.39;87.03
70011;BME280;59543;37.950;-122.338;2023-01-28T05:41:45;101577.25;;;7.32;86.93
70011;BME280;59543;37.950;-122.338;2023-01-28T05:44:11;101583.53;;;7.31;86.64
70011;BME280;59543;37.950;-122.338;2023-01-28T05:46:37;101587.59;;;7.37;85.92
70011;BME280;59543;37.950;-122.338;2023-01-28T05:49:02;101585.16;;;7.33;86.12
70011;BME280;59543;37.950;-122.338;2023-01-28T05:51:30;101584.84;;;7.25;86.15
70011;BME280;59543;37.950;-122.338;2023-01-28T05:53:57;101584.31;;;7.20;86.16
70011;BME280;59543;37.950;-122.338;2023-01-28T05:56:23;101587.63;;;7.11;86.61
70011;BME280;59543;37.950;-122.338;2023-01-28T05:58:48;101585.78;;;7.12;86.51
70011;BME280;59543;37.950;-122.338;2023-01-28T06:01:14;101583.44;;;7.07;87.18
70011;BME280;59543;37.950;-122.338;2023-01-28T06:03:40;101592.19;;;6.96;87.28
70011;BME280;59543;37.950;-122.338;2023-01-28T06:06:06;101583.75;;;6.90;87.65
70011;BME280;59543;37.950;-122.338;2023-01-28T06:08:32;101586.84;;;6.96;87.09
70011;BME280;59543;37.950;-122.338;2023-01-28T06:10:58;101587.63;;;6.98;86.32
70011;BME280;59543;37.950;-122.338;2023-01-28T06:13:23;101587.63;;;6.98;86.29
70011;BME280;59543;37.950;-122.338;2023-01-28T06:15:49;101591.22;;;6.97;86.18
70011;BME280;59543;37.950;-122.338;2023-01-28T06:18:15;101591.34;;;6.96;85.72
70011;BME280;59543;37.950;-122.338;2023-01-28T06:20:41;101588.03;;;6.92;85.61
70011;BME280;59543;37.950;-122.338;2023-01-28T06:23:07;101589.19;;;6.88;85.91
70011;BME280;59543;37.950;-122.338;2023-01-28T06:25:33;101593.47;;;6.91;85.56
70011;BME280;59543;37.950;-122.338;2023-01-28T06:27:58;101594.22;;;6.93;84.71
70011;BME280;59543;37.950;-122.338;2023-01-28T06:30:24;101589.09;;;6.90;84.82
70011;BME280;59543;37.950;-122.338;2023-01-28T06:32:54;101596.00;;;6.79;84.50
70011;BME280;59543;37.950;-122.338;2023-01-28T06:35:20;101592.69;;;6.76;84.71
70011;BME280;59543;37.950;-122.338;2023-01-28T06:37:46;101582.97;;;6.75;84.94
70011;BME280;59543;37.950;-122.338;2023-01-28T06:40:12;101586.78;;;6.71;84.84
70011;BME280;59543;37.950;-122.338;2023-01-28T06:42:37;101586.34;;;6.64;84.67
70011;BME280;59543;37.950;-122.338;2023-01-28T06:45:03;101581.31;;;6.59;85.18
70011;BME280;59543;37.950;-122.338;2023-01-28T06:47:29;101584.22;;;6.56;84.91
70011;BME280;59543;37.950;-122.338;2023-01-28T06:49:55;101593.16;;;6.55;84.78
70011;BME280;59543;37.950;-122.338;2023-01-28T06:52:21;101590.81;;;6.51;84.65
70011;BME280;59543;37.950;-122.338;2023-01-28T06:54:47;101593.78;;;6.46;84.40
70011;BME280;59543;37.950;-122.338;2023-01-28T06:57:12;101596.84;;;6.40;84.24
70011;BME280;59543;37.950;-122.338;2023-01-28T06:59:38;101594.19;;;6.40;84.05
70011;BME280;59543;37.950;-122.338;2023-01-28T07:02:04;101608.06;;;6.32;83.79
70011;BME280;59543;37.950;-122.338;2023-01-28T07:04:30;101607.41;;;6.29;84.12
70011;BME280;59543;37.950;-122.338;2023-01-28T07:06:56;101596.22;;;6.36;83.50
70011;BME280;59543;37.950;-122.338;2023-01-28T07:09:22;101609.88;;;6.32;83.35
70011;BME280;59543;37.950;-122.338;2023-01-28T07:11:48;101610.25;;;6.26;83.48
70011;BME280;59543;37.950;-122.338;2023-01-28T07:14:14;101610.38;;;6.24;83.75
70011;BME280;59543;37.950;-122.338;2023-01-28T07:16:39;101600.38;;;6.13;83.63
70011;BME280;59543;37.950;-122.338;2023-01-28T07:19:05;101602.19;;;6.13;83.64
70011;BME280;59543;37.950;-122.338;2023-01-28T07:21:31;101600.97;;;6.04;83.77
70011;BME280;59543;37.950;-122.338;2023-01-28T07:23:57;101598.09;;;6.07;84.12
70011;BME280;59543;37.950;-122.338;2023-01-28T07:26:23;101590.09;;;6.07;84.07
70011;BME280;59543;37.950;-122.338;2023-01-28T07:28:48;101594.41;;;5.95;85.79
70011;BME280;59543;37.950;-122.338;2023-01-28T07:31:14;101600.75;;;6.07;85.98
70011;BME280;59543;37.950;-122.338;2023-01-28T07:33:40;101603.63;;;6.04;86.02
70011;BME280;59543;37.950;-122.338;2023-01-28T07:36:06;101605.25;;;5.92;86.55
70011;BME280;59543;37.950;-122.338;2023-01-28T07:38:32;101595.03;;;6.13;86.59
70011;BME280;59543;37.950;-122.338;2023-01-28T07:40:58;101602.25;;;6.26;86.21
70011;BME280;59543;37.950;-122.338;2023-01-28T07:43:23;101601.06;;;6.44;85.05
70011;BME280;59543;37.950;-122.338;2023-01-28T07:45:49;101604.81;;;6.27;85.11
70011;BME280;59543;37.950;-122.338;2023-01-28T07:48:15;101597.69;;;6.13;85.87
70011;BME280;59543;37.950;-122.338;2023-01-28T07:50:41;101602.50;;;6.08;86.16
70011;BME280;59543;37.950;-122.338;2023-01-28T07:53:09;101601.38;;;5.84;87.88
70011;BME280;59543;37.950;-122.338;2023-01-28T07:55:35;101598.13;;;5.79;88.00
70011;BME280;59543;37.950;-122.338;2023-01-28T07:58:01;101603.47;;;5.79;87.90
70011;BME280;59543;37.950;-122.338;2023-01-28T08:00:29;101603.06;;;5.85;87.38
70011;BME280;59543;37.950;-122.338;2023-01-28T08:02:56;101595.53;;;5.77;87.35
70011;BME280;59543;37.950;-122.338;2023-01-28T08:05:22;101588.69;;;5.87;86.13
70011;BME280;59543;37.950;-122.338;2023-01-28T08:07:48;101590.00;;;5.80;86.00
70011;BME280;59543;37.950;-122.338;2023-01-28T08:10:15;101600.22;;;5.73;86.31
70011;BME280;59543;37.950;-122.338;2023-01-28T08:13:02;101599.56;;;5.70;86.56
70011;BME280;59543;37.950;-122.338;2023-01-28T08:15:27;101590.25;;;5.63;87.09
70011;BME280;59543;37.950;-122.338;2023-01-28T08:17:54;101594.81;;;5.61;86.58
70011;BME280;59543;37.950;-122.338;2023-01-28T08:20:20;101582.50;;;5.58;86.63
70011;BME280;59543;37.950;-122.338;2023-01-28T08:22:46;101577.28;;;5.57;86.67
70011;BME280;59543;37.950;-122.338;2023-01-28T08:25:12;101580.22;;;5.52;86.22
70011;BME280;59543;37.950;-122.338;2023-01-28T08:27:38;101572.88;;;5.56;86.13
70011;BME280;59543;37.950;-122.338;2023-01-28T08:30:04;101574.13;;;5.50;85.58
70011;BME280;59543;37.950;-122.338;2023-01-28T08:32:30;101573.56;;;5.45;85.41
70011;BME280;59543;37.950;-122.338;2023-01-28T08:34:56;101567.53;;;5.41;85.39
70011;BME280;59543;37.950;-122.338;2023-01-28T08:37:22;101566.69;;;5.41;85.28
70011;BME280;59543;37.950;-122.338;2023-01-28T08:39:48;101565.34;;;5.34;85.75
70011;BME280;59543;37.950;-122.338;2023-01-28T08:42:15;101559.56;;;5.27;85.26
70011;BME280;59543;37.950;-122.338;2023-01-28T08:44:41;101558.91;;;5.23;85.20
70011;BME280;59543;37.950;-122.338;2023-01-28T08:47:07;101550.19;;;5.20;85.92
70011;BME280;59543;37.950;-122.338;2023-01-28T08:49:32;101554.97;;;5.29;87.18
70011;BME280;59543;37.950;-122.338;2023-01-28T08:51:58;101547.44;;;5.21;87.02
70011;BME280;59543;37.950;-122.338;2023-01-28T08:54:24;101542.50;;;5.15;87.29
70011;BME280;59543;37.950;-122.338;2023-01-28T08:56:50;101543.16;;;5.33;86.75
70011;BME280;59543;37.950;-122.338;2023-01-28T08:59:16;101543.25;;;5.46;86.30
70011;BME280;59543;37.950;-122.338;2023-01-28T09:01:42;101540.03;;;5.26;86.98
70011;BME280;59543;37.950;-122.338;2023-01-28T09:04:08;101541.16;;;5.37;86.79
70011;BME280;59543;37.950;-122.338;2023-01-28T09:06:34;101535.44;;;5.57;85.49
70011;BME280;59543;37.950;-122.338;2023-01-28T09:09:00;101539.22;;;5.67;84.64
70011;BME280;59543;37.950;-122.338;2023-01-28T09:11:26;101545.06;;;5.31;87.20
70011;BME280;59543;37.950;-122.338;2023-01-28T09:13:52;101542.84;;;5.66;86.41
70011;BME280;59543;37.950;-122.338;2023-01-28T09:16:18;101527.03;;;5.49;87.71
70011;BME280;59543;37.950;-122.338;2023-01-28T09:18:44;101528.75;;;5.50;87.99
70011;BME280;59543;37.950;-122.338;2023-01-28T09:21:10;101533.44;;;5.32;89.14
70011;BME280;59543;37.950;-122.338;2023-01-28T09:23:36;101541.72;;;5.27;89.81
70011;BME280;59543;37.950;-122.338;2023-01-28T09:26:03;101542.31;;;5.33;90.51
70011;BME280;59543;37.950;-122.338;2023-01-28T09:28:29;101540.00;;;5.41;89.33
70011;BME280;59543;37.950;-122.338;2023-01-28T09:31:02;101541.75;;;5.42;89.47
70011;BME280;59543;37.950;-122.338;2023-01-28T09:33:28;101535.03;;;5.20;89.74
70011;BME280;59543;37.950;-122.338;2023-01-28T09:35:54;101539.81;;;5.15;91.12
70011;BME280;59543;37.950;-122.338;2023-01-28T09:38:20;101538.00;;;5.16;91.55
70011;BME280;59543;37.950;-122.338;2023-01-28T09:40:46;101534.59;;;5.28;90.98
70011;BME280;59543;37.950;-122.338;2023-01-28T09:43:31;101538.88;;;5.31;89.92
70011;BME280;59543;37.950;-122.338;2023-01-28T09:46:03;101537.53;;;4.95;92.25
70011;BME280;59543;37.950;-122.338;2023-01-28T09:48:31;101536.00;;;4.91;92.54
70011;BME280;59543;37.950;-122.338;2023-01-28T09:51:02;101536.56;;;4.81;92.90
70011;BME280;59543;37.950;-122.338;2023-01-28T09:53:34;101532.81;;;4.70;92.97
70011;BME280;59543;37.950;-122.338;2023-01-28T09:58:29;101533.84;;;4.67;93.09
70011;BME280;59543;37.950;-122.338;2023-01-28T10:17:25;101544.56;;;4.51;91.34
70011;BME280;59543;37.950;-122.338;2023-01-28T10:19:59;101539.44;;;4.48;90.76
70011;BME280;59543;37.950;-122.338;2023-01-28T10:22:29;101542.94;;;4.49;90.05
70011;BME280;59543;37.950;-122.338;2023-01-28T10:24:57;101551.13;;;4.46;90.57
70011;BME280;59543;37.950;-122.338;2023-01-28T10:27:31;101554.63;;;4.46;90.28
70011;BME280;59543;37.950;-122.338;2023-01-28T10:29:58;101556.63;;;4.43;89.85
70011;BME280;59543;37.950;-122.338;2023-01-28T10:32:31;101552.41;;;4.39;89.84
70011;BME280;59543;37.950;-122.338;2023-01-28T10:35:01;101561.78;;;4.46;89.63
70011;BME280;59543;37.950;-122.338;2023-01-28T10:37:28;101569.84;;;4.44;88.08
70011;BME280;59543;37.950;-122.338;2023-01-28T10:39:57;101566.56;;;4.39;88.53
70011;BME280;59543;37.950;-122.338;2023-01-28T10:42:27;101564.44;;;4.30;88.24
70011;BME280;59543;37.950;-122.338;2023-01-28T10:44:56;101557.16;;;4.33;88.39
70011;BME280;59543;37.950;-122.338;2023-01-28T10:47:26;101559.19;;;4.44;88.51
70011;BME280;59543;37.950;-122.338;2023-01-28T10:49:53;101550.09;;;4.32;87.50
70011;BME280;59543;37.950;-122.338;2023-01-28T10:52:21;101563.78;;;4.26;88.26
70011;BME280;59543;37.950;-122.338;2023-01-28T10:54:47;101549.41;;;4.29;88.29
70011;BME280;59543;37.950;-122.338;2023-01-28T10:57:23;101565.50;;;4.27;88.39
70011;BME280;59543;37.950;-122.338;2023-01-28T10:59:49;101566.44;;;4.26;87.58
70011;BME280;59543;37.950;-122.338;2023-01-28T11:04:47;101558.91;;;4.19;87.74
70011;BME280;59543;37.950;-122.338;2023-01-28T11:07:16;101563.50;;;4.15;88.50
70011;BME280;59543;37.950;-122.338;2023-01-28T11:09:46;101559.44;;;4.09;88.38
70011;BME280;59543;37.950;-122.338;2023-01-28T11:12:16;101559.78;;;4.03;89.16
70011;BME280;59543;37.950;-122.338;2023-01-28T11:15:16;101557.00;;;4.05;89.02
70011;BME280;59543;37.950;-122.338;2023-01-28T11:17:36;101563.13;;;4.07;88.38
70011;BME280;59543;37.950;-122.338;2023-01-28T11:20:17;101563.97;;;4.07;88.55
70011;BME280;59543;37.950;-122.338;2023-01-28T11:22:45;101565.00;;;4.05;87.53
70011;BME280;59543;37.950;-122.338;2023-01-28T11:27:52;101561.13;;;4.10;87.33
70011;BME280;59543;37.950;-122.338;2023-01-28T11:30:28;101555.38;;;4.02;87.41
70011;BME280;59543;37.950;-122.338;2023-01-28T11:32:55;101556.50;;;3.98;87.92
70011;BME280;59543;37.950;-122.338;2023-01-28T11:35:26;101549.78;;;3.91;88.87
70011;BME280;59543;37.950;-122.338;2023-01-28T11:37:53;101550.31;;;3.98;88.49
70011;BME280;59543;37.950;-122.338;2023-01-28T11:40:19;101551.06;;;4.00;89.00
70011;BME280;59543;37.950;-122.338;2023-01-28T11:42:45;101553.75;;;4.00;89.73
70011;BME280;59543;37.950;-122.338;2023-01-28T11:45:21;101551.84;;;4.02;89.23
70011;BME280;59543;37.950;-122.338;2023-01-28T11:50:24;101559.94;;;4.00;88.60
70011;BME280;59543;37.950;-122.338;2023-01-28T12:25:01;101542.75;;;3.90;90.44
70011;BME280;59543;37.950;-122.338;2023-01-28T12:27:44;101536.75;;;3.86;89.52
70011;BME280;59543;37.950;-122.338;2023-01-28T12:32:41;101538.97;;;3.78;89.84
70011;BME280;59543;37.950;-122.338;2023-01-28T12:35:16;101540.91;;;3.76;89.75
70011;BME280;59543;37.950;-122.338;2023-01-28T12:42:51;101544.47;;;3.75;92.17
70011;BME280;59543;37.950;-122.338;2023-01-28T12:45:19;101533.59;;;3.80;92.80
70011;BME280;59543;37.950;-122.338;2023-01-28T12:48:00;101532.56;;;3.82;91.52
70011;BME280;59543;37.950;-122.338;2023-01-28T12:50:30;101534.94;;;3.87;91.00
70011;BME280;59543;37.950;-122.338;2023-01-28T12:53:00;101539.59;;;3.83;90.81
70011;BME280;59543;37.950;-122.338;2023-01-28T12:57:55;101534.00;;;3.72;93.71
70011;BME280;59543;37.950;-122.338;2023-01-28T13:00:29;101540.28;;;3.87;92.99
70011;BME280;59543;37.950;-122.338;2023-01-28T13:05:25;101540.72;;;3.95;92.34
70011;BME280;59543;37.950;-122.338;2023-01-28T13:07:58;101538.56;;;3.86;93.04
70011;BME280;59543;37.950;-122.338;2023-01-28T13:13:00;101543.69;;;4.05;92.50
70011;BME280;59543;37.950;-122.338;2023-01-28T13:15:27;101547.84;;;3.95;92.55
70011;BME280;59543;37.950;-122.338;2023-01-28T13:17:58;101543.63;;;3.90;92.59
70011;BME280;59543;37.950;-122.338;2023-01-28T13:23:00;101538.63;;;3.84;92.27
70011;BME280;59543;37.950;-122.338;2023-01-28T13:25:26;101538.91;;;3.80;92.26
70011;BME280;59543;37.950;-122.338;2023-01-28T13:27:56;101533.66;;;3.78;93.52
70011;BME280;59543;37.950;-122.338;2023-01-28T13:30:25;101539.16;;;3.75;92.69
70011;BME280;59543;37.950;-122.338;2023-01-28T13:32:55;101522.44;;;3.73;92.39
70011;BME280;59543;37.950;-122.338;2023-01-28T13:35:54;101518.16;;;3.71;92.31
70011;BME280;59543;37.950;-122.338;2023-01-28T13:38:15;101514.63;;;3.70;93.30
70011;BME280;59543;37.950;-122.338;2023-01-28T13:40:42;101516.00;;;3.77;92.38
70011;BME280;59543;37.950;-122.338;2023-01-28T13:43:28;101511.28;;;3.82;90.75
70011;BME280;59543;37.950;-122.338;2023-01-28T13:46:06;101506.66;;;3.70;91.07
70011;BME280;59543;37.950;-122.338;2023-01-28T13:48:45;101502.34;;;3.67;92.42
70011;BME280;59543;37.950;-122.338;2023-01-28T13:59:22;101503.97;;;3.70;90.87
70011;BME280;59543;37.950;-122.338;2023-01-28T14:17:41;101487.66;;;3.44;92.08
70011;BME280;59543;37.950;-122.338;2023-01-28T14:20:18;101488.16;;;3.51;92.14
70011;BME280;59543;37.950;-122.338;2023-01-28T14:22:45;101485.78;;;3.47;92.24
70011;BME280;59543;37.950;-122.338;2023-01-28T14:25:12;101485.63;;;3.50;92.41
70011;BME280;59543;37.950;-122.338;2023-01-28T14:27:40;101481.75;;;3.55;91.91
70011;BME280;59543;37.950;-122.338;2023-01-28T14:30:17;101474.03;;;3.51;91.12
70011;BME280;59543;37.950;-122.338;2023-01-28T14:32:48;101473.06;;;3.52;90.93
70011;BME280;59543;37.950;-122.338;2023-01-28T14:35:17;101478.56;;;3.49;91.97